ADDS METAR Data INFO
IDs: Format: Raw Decoded Include TAF

Data at: 0729 UTC 23 Sep 2017

KVCT 230657Z AUTO 00000KT 3SM BR CLR 23/22 A2991 RMK AO2 T02280217 TSNO $
KVCT 230651Z AUTO 00000KT 1 3/4SM BR CLR 23/22 A2991 RMK AO2 SLP126 T02280217 TSNO $
KVCT 230451Z AUTO 08005KT 7SM CLR 23/22 A2990 RMK AO2 SLP124 T02330222 TSNO $
KVCT 230351Z AUTO 09005KT 8SM CLR 24/23 A2991 RMK AO2 SLP125 T02390228 TSNO $
KVCT 230258Z 09006KT 10SM SKC 24/23 A2989
KVCT 222018Z 00000KT 10SM VCTS FEW030 FEW045 SCT110 24/23 A2993 RMK AO2 LTG DSNT S AND SW RAB00E11 P0000 T02440228 $
KVCT 222002Z 23004KT 7SM -RA FEW031 BKN043 OVC100 24/22 A2993 RMK AO2 LTG DSNT S AND W RAB00 P0000 T02390222 $
KVCT 221951Z 21006KT 10SM VCTS SCT029 BKN045 OVC075 23/22 A2994 RMK AO2 WSHFT 1852 LTG DSNT W AND NW RAB1856E06B19E43 TSE34 SLP137 P0016 T02330217 $
KVCT 221935Z 22004KT 4SM VCTS RA BR FEW026 SCT047 OVC060 23/22 A2995 RMK AO2 WSHFT 1852 LTG DSNT S AND SW RAB1856E06B19 TSE34 P0016 T02330217 $
KVCT 221927Z 19008KT 1 1/4SM +TSRA BR SCT022 BKN046 OVC060 23/22 A2995 RMK AO2 WSHFT 1852 VIS 3/4V3 LTG DSNT ALQDS RAB1856E06B19 P0005 T02330222 $
KVCT 221924Z 19009KT 2 1/2SM +TSRA BR FEW020 SCT032 OVC060 24/22 A2995 RMK AO2 WSHFT 1852 VIS 1 1/4V5 LTG DSNT ALQDS RAB1856E06B19 P0003 T02390222 $
KVCT 221912Z 19008G22KT 10SM TS SCT021 BKN030 BKN042 25/23 A2995 RMK AO2 WSHFT 1852 LTG DSNT ALQDS RAB1856E06 P0001 T02500233 $
KVCT 221851Z 21009KT 10SM TS SCT037 BKN044 BKN055 27/23 A2993 RMK AO2 PK WND 19027/1813 WSHFT 1807 LTG DSNT E AND S RAB12E21 TSB48 SLP134 P0000 T02670228 $
KVCT 221848Z 24006KT 10SM TS SCT037 BKN044 BKN055 27/22 A2993 RMK AO2 PK WND 19027/1813 WSHFT 1807 LTG DSNT E AND S RAB12E21 TSB48 P0000 $
KVCT 221827Z 25010KT 10SM SCT029 BKN041 OVC080 26/21 A2993 RMK AO2 PK WND 19027/1813 WSHFT 1807 LTG DSNT N-E RAB12E21 P0000 T02560211 $
KVCT 221811Z 21019G24KT 7SM SCT026 SCT036 BKN080 27/23 A2993 RMK AO2 LTG DSNT N T02720228 $
KVCT 221751Z 18004KT 10SM SCT030 30/23 A2994 RMK AO2 LTG DSNT W SLP135 T03000228 10306 20233 58005 $
KVCT 221651Z 16008KT 10SM SCT034 SCT095 28/24 A2995 RMK AO2 LTG DSNT NE AND NW SLP140 T02830239 $
KVCT 221639Z 15013KT 10SM VCTS FEW049 SCT095 SCT110 28/23 A2996 RMK AO2 LTG DSNT NE T02830233 $
KVCT 221551Z 09006KT 10SM SCT030 29/24 A2996 RMK AO2 TSB08E27 SLP143 T02890239 $
KVCT 221533Z 09007KT 10SM SCT030 27/24 A2996 RMK AO2 TSB08E27 T02720239 $
KVCT 221514Z 10006KT 10SM TS CLR 27/24 A2996 RMK AO2 TSB08 T02720244 $
KVCT 221451Z 12008KT 10SM SCT023 28/25 A2995 RMK AO2 SLP140 T02830250 $
KVCT 221420Z 10005KT 10SM 28/25 A2994 RMK AO2 T02780250 $
KVCT 221351Z 08004KT 8SM FEW020 27/24 A2994 RMK AO2 SLP135 T02670244
KVCT 221251Z COR 06004KT 7SM BR CLR 24/23 A2992 RMK AO2 SLP131 T02390228
KVCT 221151Z 00000KT 7SM CLR 23/22 A2992 RMK AO2 SLP128 7//// T02330222 10250 20233 53003
KVCT 221051Z AUTO 12003KT 8SM CLR 24/23 A2991 RMK AO2 SLP127 T02390228
KVCT 220951Z AUTO 11004KT 9SM FEW022 24/23 A2990 RMK AO2 SLP124 T02390228
KVCT 220940Z AUTO 09004KT 9SM SCT021 24/23 A2990 RMK AO2 T02390228
KVCT 220928Z AUTO 11004KT 8SM BKN021 24/23 A2990 RMK AO2 T02390228
KVCT 220851Z AUTO 10004KT 10SM CLR 24/23 A2991 RMK AO2 SLP126 T02440228 56008
KVCT 220751Z AUTO 16006KT 10SM CLR 24/23 A2992 RMK AO2 SLP128 T02440233
KVCT 220651Z AUTO 16004KT 6SM BR CLR 24/23 A2992 RMK AO2 SLP129 T02440233
KVCT 220551Z AUTO 13006KT 8SM FEW026 24/23 A2993 RMK AO2 SLP134 T02440233 10256 20233 403390217 51005
KVCT 220451Z AUTO 11007KT 9SM CLR 24/23 A2993 RMK AO2 SLP133 T02440233 TSNO
KVCT 220351Z AUTO 10008KT 10SM CLR 24/23 A2992 RMK AO2 LTG DSNT E SLP131 T02440233
KVCT 220251Z AUTO 08008KT 10SM FEW018 SCT027 SCT032 24/23 A2992 RMK AO2 SLP129 T02440233 53015
KVCT 220236Z 07010KT 9SM SCT018 BKN027 24/23 A2991 RMK AO2 T02440233
KVCT 220159Z 04008KT 8SM FEW017 FEW024 BKN032 25/24 A2990 RMK AO2 T02500239
KVCT 220151Z 06007KT 9SM SCT019 BKN025 BKN030 25/24 A2989 RMK AO2 SLP121 T02500239
KVCT 220126Z 04008KT 8SM BKN021 25/24 A2989 RMK AO2 T02500239
KVCT 220051Z 12007KT 10SM CLR 25/23 A2987 RMK AO2 SLP114 T02500228
KVCT 220015Z 11008KT 10SM SCT090 BKN100 24/20 A2988 RMK AO2 LTG DSNT SW T02440200
KVCT 212351Z 14011KT 10SM VCTS FEW034 SCT100 23/19 A2987 RMK AO2 PK WND 15031/2318 LTG DSNT SE-W RAE37 TSE38 SLP114 P0011 60128 T02330194 10339 20217 58003
KVCT 212344Z 15018G29KT 10SM VCTS FEW034 SCT100 SCT120 24/21 A2988 RMK AO2 PK WND 15031/2318 LTG DSNT SE-W RAE37 TSE38 P0011 T02390206
KVCT 212327Z 15019G31KT 7SM -TSRA FEW043 SCT070 BKN095 23/21 A2987 RMK AO2 PK WND 15031/2318 LTG DSNT ALQDS PRESFR P0011 T02330211
KVCT 212256Z 13014G20KT 2SM TSRA BR BKN032 BKN060 OVC080 23/21 A2992 RMK AO2 LTG DSNT ALQDS P0001 T02280211
KVCT 212251Z 11013G22KT 1 1/4SM +TSRA BR BKN030 BKN060 OVC110 23/21 A2994 RMK AO2 PK WND 06039/2217 WSHFT 2138 LTG DSNT ALQDS RAB2156 SLP136 P0117 T02280211
KVCT 212247Z 09018G22KT 1SM +TSRA BR BKN028 BKN060 23/22 A2993 RMK AO2 PK WND 06039/2217 WSHFT 2138 LTG DSNT NE AND SE AND NW RAB2156 P0113
KVCT 212244Z 09016G22KT 1/4SM +TSRA FG BKN026 OVC060 22/21 A2993 RMK AO2 PK WND 06039/2217 WSHFT 2138 LTG DSNT ALQDS RAB2156 P0109 T02220211
KVCT 212237Z 08014KT 3/4SM +TSRA BR BKN024 OVC110 22/21 A2994 RMK AO2 PK WND 06039/2217 WSHFT 2138 LTG DSNT ALQDS RAB2156 P0102 T02170211
KVCT 212220Z 06028G39KT 1/4SM +TSRA FG SCT011 BKN028 OVC110 23/22 A2991 RMK AO2 PK WND 06039/2217 WSHFT 2138 LTG DSNT ALQDS RAB2156 P0044 T02280217
KVCT 212209Z 06024G30KT 3/4SM +TSRA BR FEW007 BKN026 OVC037 24/23 A2990 RMK AO2 PK WND 06030/2205 WSHFT 2138 LTG DSNT NW-E RAB2156 P0005 T02390228
KVCT 212205Z 06023G30KT 1 1/4SM TSRA BR FEW007 BKN030 OVC035 24/23 A2989 RMK AO2 PK WND 06030/2205 WSHFT 2138 LTG DSNT N AND NE RAB2156 P0001 T02440228
KVCT 212203Z 06015G21KT 1 3/4SM TSRA BR FEW007 BKN027 OVC035 24/23 A2990 RMK AO2 WSHFT 2138 LTG DSNT N-E RAB2156 P0001 T02440233
KVCT 212154Z 06014G21KT 9SM TS SCT022 BKN027 BKN035 26/23 A2990 RMK AO2 WSHFT 2138 LTG DSNT N-E T02610228
KVCT 212151Z 06015G21KT 10SM TS FEW020 SCT026 BKN035 27/23 A2990 RMK AO2 WSHFT 2136 LTG DSNT N-E TSB39 SLP121 T02670228
KVCT 212051Z 16014KT 10SM SCT038 32/24 A2988 RMK AO2 LTG DSNT NW-E SLP117 T03170244 56016
KVCT 211951Z COR 18015G20KT 10SM SCT038 33/23 A2989 RMK AO2 LTG DSNT N AND NE AND S SLP121 T03330233
KVCT 211943Z 18014KT 10SM FEW038 SCT046 33/23 A2990 RMK AO2 LTG DSNT N AND NE T03330228